createdAt,value
2023-05-18T00:01:31.136Z,100808.11
2023-05-18T00:04:12.779Z,100814.12
2023-05-18T00:07:15.677Z,100816.34
2023-05-18T00:09:48.411Z,100814.06
2023-05-18T00:13:05.370Z,100812.12
2023-05-18T00:15:46.184Z,100813.36
2023-05-18T00:18:34.669Z,100812.02
2023-05-18T00:21:22.115Z,100816.73
2023-05-18T00:24:17.484Z,100812.57
2023-05-18T00:27:10.926Z,100813.55
2023-05-18T00:30:09.678Z,100812.08
2023-05-18T00:33:13.855Z,100813.20
2023-05-18T00:35:47.498Z,100815.16
2023-05-18T00:38:53.221Z,100815.13
2023-05-18T00:41:38.752Z,100814.73
2023-05-18T00:44:48.326Z,100821.52
2023-05-18T00:47:31.032Z,100815.13
2023-05-18T00:50:50.434Z,100815.70
2023-05-18T00:53:20.572Z,100817.38
2023-05-18T00:56:48.179Z,100816.29
2023-05-18T00:59:58.412Z,100818.83
2023-05-18T01:02:54.116Z,100819.39
2023-05-18T01:05:54.686Z,100816.02
2023-05-18T01:08:37.967Z,100814.09
2023-05-18T01:12:13.555Z,100809.96
2023-05-18T01:15:43.786Z,100814.98
2023-05-18T01:18:36.972Z,100812.62
2023-05-18T01:21:53.176Z,100815.64
2023-05-18T01:28:42.032Z,100820.11
2023-05-18T01:31:29.551Z,100824.34
2023-05-18T01:34:47.449Z,100826.23
2023-05-18T01:38:15.088Z,100826.65
2023-05-18T01:41:46.561Z,100833.25
2023-05-18T01:45:17.027Z,100836.48
2023-05-18T01:48:35.977Z,100834.51
2023-05-18T01:51:57.388Z,100836.48
2023-05-18T01:55:25.039Z,100835.46
2023-05-18T01:58:45.348Z,100838.02
2023-05-18T02:02:12.985Z,100838.83
2023-05-18T02:05:30.910Z,100842.54
2023-05-18T02:08:40.562Z,100841.08
2023-05-18T02:12:08.242Z,100846.51
2023-05-18T02:15:34.520Z,100846.05
2023-05-18T02:19:02.208Z,100850.23
2023-05-18T02:22:29.838Z,100848.67
2023-05-18T02:25:57.421Z,100849.56
2023-05-18T02:29:25.050Z,100851.27
2023-05-18T02:32:54.107Z,100852.02
2023-05-18T02:36:21.809Z,100857.60
2023-05-18T02:39:30.332Z,100865.58
2023-05-18T02:42:50.838Z,100867.98
2023-05-18T02:45:48.448Z,100877.38
2023-05-18T02:49:00.349Z,100882.84
2023-05-18T02:52:20.806Z,100886.06
2023-05-18T02:55:48.495Z,100882.77
2023-05-18T02:59:16.117Z,100880.32
2023-05-18T03:02:37.872Z,100873.67
2023-05-18T03:05:53.046Z,100871.90
2023-05-18T03:09:09.789Z,100871.38
2023-05-18T03:11:54.880Z,100878.00
2023-05-18T03:15:12.462Z,100880.39
2023-05-18T03:18:15.906Z,100878.69
2023-05-18T03:21:06.870Z,100877.88
2023-05-18T03:23:56.746Z,100879.61
2023-05-18T03:26:40.214Z,100881.94
2023-05-18T03:29:34.551Z,100887.80
2023-05-18T03:32:55.007Z,100884.95
2023-05-18T03:35:42.287Z,100895.72
2023-05-18T03:38:48.500Z,100893.23
2023-05-18T03:41:30.945Z,100902.15
2023-05-18T03:44:20.928Z,100903.79
2023-05-18T03:47:48.571Z,100902.97
2023-05-18T03:50:37.636Z,100898.63
2023-05-18T03:53:37.663Z,100902.80
2023-05-18T03:56:46.398Z,100901.09
2023-05-18T04:00:06.707Z,100899.55
2023-05-18T04:03:24.934Z,100897.40
2023-05-18T04:06:26.888Z,100900.02
2023-05-18T04:09:26.588Z,100906.55
2023-05-18T04:12:23.370Z,100906.34
2023-05-18T04:15:26.545Z,100909.96
2023-05-18T04:18:40.267Z,100911.70
2023-05-18T04:21:36.943Z,100916.48
2023-05-18T04:24:42.012Z,100918.42
2023-05-18T04:27:51.342Z,100917.89
2023-05-18T04:31:14.084Z,100916.77
2023-05-18T04:34:31.595Z,100919.42
2023-05-18T04:37:41.641Z,100933.85
2023-05-18T04:40:43.002Z,100933.49
2023-05-18T04:43:16.186Z,100931.04
2023-05-18T04:46:35.026Z,100931.36
2023-05-18T04:49:42.527Z,100927.65
2023-05-18T04:52:33.419Z,100924.82
2023-05-18T04:55:36.737Z,100926.87
2023-05-18T04:58:59.634Z,100928.42
2023-05-18T05:02:09.966Z,100925.83
2023-05-18T05:04:58.495Z,100933.05
2023-05-18T05:08:04.892Z,100934.96
2023-05-18T05:11:13.113Z,100933.14
2023-05-18T05:14:23.083Z,100934.55
2023-05-18T05:17:50.696Z,100932.00
2023-05-18T05:21:09.728Z,100935.11
2023-05-18T05:24:08.523Z,100937.27
2023-05-18T05:26:50.134Z,100939.27
2023-05-18T05:29:50.913Z,100943.56
2023-05-18T05:32:38.622Z,100941.38
2023-05-18T05:35:25.508Z,100944.25
2023-05-18T05:38:06.516Z,100943.66
2023-05-18T05:41:14.081Z,100940.44
2023-05-18T05:44:09.712Z,100937.92
2023-05-18T05:47:30.446Z,100941.98
2023-05-18T05:50:33.502Z,100944.96
2023-05-18T05:53:51.266Z,100942.47
2023-05-18T05:56:48.967Z,100946.65
2023-05-18T06:00:10.551Z,100950.03
2023-05-18T06:03:38.288Z,100951.92
2023-05-18T06:06:54.831Z,100949.65
2023-05-18T06:09:55.557Z,100950.08
2023-05-18T06:13:07.314Z,100953.58
2023-05-18T06:16:03.027Z,100951.13
2023-05-18T06:19:20.956Z,100954.77
2023-05-18T06:22:31.968Z,100952.09
2023-05-18T06:25:50.290Z,100946.66
2023-05-18T06:29:03.241Z,100949.44
2023-05-18T06:32:17.216Z,100950.05
2023-05-18T06:35:35.342Z,100950.94
2023-05-18T06:38:42.915Z,100953.40
2023-05-18T06:42:00.151Z,100953.37
2023-05-18T06:44:53.987Z,100950.91
2023-05-18T06:47:54.103Z,100952.02
2023-05-18T06:50:44.032Z,100948.85
2023-05-18T06:53:50.585Z,100949.73
2023-05-18T06:56:37.903Z,100952.91
2023-05-18T06:59:45.620Z,100950.06
2023-05-18T07:02:26.808Z,100950.63
2023-05-18T07:05:09.346Z,100953.15
2023-05-18T07:08:17.526Z,100950.86
2023-05-18T07:11:18.913Z,100949.11
2023-05-18T07:13:59.188Z,100949.27
2023-05-18T07:17:08.603Z,100947.38
2023-05-18T07:23:28.282Z,100952.10
2023-05-18T07:26:43.020Z,100949.48
2023-05-18T07:29:41.608Z,100959.98
2023-05-18T07:32:39.544Z,100964.41
2023-05-18T07:35:46.374Z,100961.64
2023-05-18T07:38:34.361Z,100964.94
2023-05-18T07:41:06.854Z,100962.43
2023-05-18T07:44:25.256Z,100960.98
2023-05-18T07:47:26.827Z,100956.80
2023-05-18T07:50:27.361Z,100954.52
2023-05-18T07:53:04.823Z,100958.54
2023-05-18T07:55:57.345Z,100962.30
2023-05-18T07:58:44.781Z,100958.30
2023-05-18T08:01:38.395Z,100964.39
2023-05-18T08:04:55.316Z,100964.89
2023-05-18T08:07:33.028Z,100960.73
2023-05-18T08:10:40.750Z,100964.19
2023-05-18T08:13:33.887Z,100960.35
2023-05-18T08:16:11.983Z,100961.73
2023-05-18T08:18:54.872Z,100957.44
2023-05-18T08:21:24.553Z,100955.42
2023-05-18T08:24:27.978Z,100955.09
2023-05-18T08:27:10.065Z,100958.15
2023-05-18T08:29:46.721Z,100960.95
2023-05-18T08:32:24.334Z,100959.06
2023-05-18T08:35:32.650Z,100954.65
2023-05-18T08:38:17.544Z,100950.79
2023-05-18T08:41:13.520Z,100952.10
2023-05-18T08:44:11.725Z,100946.11
2023-05-18T08:47:30.429Z,100950.37
2023-05-18T08:50:31.584Z,100948.02
2023-05-18T08:53:39.678Z,100941.45
2023-05-18T08:56:38.418Z,100940.46
2023-05-18T08:59:46.849Z,100941.89
2023-05-18T09:02:55.369Z,100934.17
2023-05-18T09:06:05.185Z,100932.42
2023-05-18T09:09:02.793Z,100936.20
2023-05-18T09:11:38.734Z,100937.94
2023-05-18T09:14:06.266Z,100935.59
2023-05-18T09:17:08.244Z,100937.17
2023-05-18T09:19:40.085Z,100932.61
2023-05-18T09:22:22.353Z,100934.15
2023-05-18T09:25:17.334Z,100934.52
2023-05-18T09:27:57.919Z,100931.52
2023-05-18T09:30:58.368Z,100929.05
2023-05-18T09:33:52.167Z,100930.39
2023-05-18T09:36:45.337Z,100928.09
2023-05-18T09:39:46.437Z,100924.20
2023-05-18T09:43:03.092Z,100919.27
2023-05-18T09:46:09.709Z,100916.52
2023-05-18T09:49:04.617Z,100915.20
2023-05-18T09:52:12.125Z,100910.34
2023-05-18T09:55:28.458Z,100915.98
2023-05-18T09:58:41.548Z,100915.90
2023-05-18T10:02:09.277Z,100914.36
2023-05-18T10:05:18.207Z,100906.93
2023-05-18T10:08:17.101Z,100899.32
2023-05-18T10:11:25.764Z,100890.33
2023-05-18T10:14:28.211Z,100889.83
2023-05-18T10:17:30.490Z,100894.26
2023-05-18T10:20:46.016Z,100893.77
2023-05-18T10:23:26.419Z,100890.15
2023-05-18T10:26:26.927Z,100892.42
2023-05-18T10:33:20.677Z,100890.20
2023-05-18T10:36:30.068Z,100890.05
2023-05-18T10:39:30.483Z,100889.27
2023-05-18T10:42:10.391Z,100882.73
2023-05-18T10:44:50.848Z,100882.22
2023-05-18T10:47:54.442Z,100879.29
2023-05-18T10:51:05.664Z,100877.65
2023-05-18T10:54:09.326Z,100877.32
2023-05-18T10:56:48.230Z,100872.61
2023-05-18T10:59:50.215Z,100870.37
2023-05-18T11:02:45.490Z,100870.41
2023-05-18T11:05:38.090Z,100864.73
2023-05-18T11:08:54.748Z,100865.59
2023-05-18T11:12:12.152Z,100863.41
2023-05-18T11:15:39.809Z,100863.59
2023-05-18T11:18:31.722Z,100863.09
2023-05-18T11:21:36.538Z,100856.43
2023-05-18T11:24:34.593Z,100854.30
2023-05-18T11:27:28.347Z,100855.15
2023-05-18T11:30:26.040Z,100856.46
2023-05-18T11:33:24.056Z,100854.87
2023-05-18T11:36:31.994Z,100853.58
2023-05-18T11:39:26.652Z,100850.86
2023-05-18T11:42:18.210Z,100853.48
2023-05-18T11:44:57.339Z,100847.66
2023-05-18T11:47:31.659Z,100853.48
2023-05-18T11:50:02.736Z,100847.45
2023-05-18T11:52:50.985Z,100843.20
2023-05-18T11:55:39.035Z,100844.76
2023-05-18T11:58:22.445Z,100847.75
2023-05-18T12:00:52.540Z,100845.14
2023-05-18T12:03:47.791Z,100843.05
2023-05-18T12:06:22.120Z,100846.73
2023-05-18T12:08:55.361Z,100848.30
2023-05-18T12:11:39.246Z,100846.55
2023-05-18T12:14:17.112Z,100846.75
2023-05-18T12:16:50.090Z,100846.52
2023-05-18T12:19:23.042Z,100846.92
2023-05-18T12:21:52.801Z,100841.60
2023-05-18T12:24:34.633Z,100843.23
2023-05-18T12:27:07.645Z,100845.75
2023-05-18T12:29:40.857Z,100851.29
2023-05-18T12:32:23.809Z,100842.27
2023-05-18T12:35:16.962Z,100846.69
2023-05-18T12:38:01.948Z,100849.97
2023-05-18T12:40:48.709Z,100849.25
2023-05-18T12:43:34.388Z,100841.88
2023-05-18T12:46:01.936Z,100842.66
2023-05-18T12:48:30.977Z,100840.63
2023-05-18T12:51:19.820Z,100839.89
2023-05-18T12:53:59.546Z,100837.08
2023-05-18T12:56:28.769Z,100835.13
2023-05-18T12:58:59.255Z,100835.00
2023-05-18T13:01:29.240Z,100833.69
2023-05-18T13:03:58.726Z,100831.33
2023-05-18T13:06:42.941Z,100830.44
2023-05-18T13:09:13.588Z,100823.06
2023-05-18T13:11:41.275Z,100811.96
2023-05-18T13:14:10.632Z,100809.73
2023-05-18T13:16:38.733Z,100811.27
2023-05-18T13:19:07.050Z,100810.27
2023-05-18T13:21:43.533Z,100811.54
2023-05-18T13:24:13.810Z,100814.39
2023-05-18T13:26:41.511Z,100814.29
2023-05-18T13:29:18.100Z,100811.98
2023-05-18T13:31:51.500Z,100809.23
2023-05-18T13:34:19.520Z,100806.84
2023-05-18T13:36:48.983Z,100806.43
2023-05-18T13:39:26.430Z,100805.70
2023-05-18T13:42:27.503Z,100808.77
2023-05-18T13:45:30.202Z,100811.85
2023-05-18T13:48:11.010Z,100807.46
2023-05-18T13:50:51.808Z,100807.72
2023-05-18T13:53:41.545Z,100810.66
2023-05-18T13:56:28.079Z,100811.02
2023-05-18T13:59:08.247Z,100810.77
2023-05-18T14:01:35.729Z,100811.85
2023-05-18T14:04:10.294Z,100809.48
2023-05-18T14:06:51.225Z,100810.05
2023-05-18T14:09:26.225Z,100807.11
2023-05-18T14:11:56.596Z,100803.38
2023-05-18T14:14:26.610Z,100803.56
2023-05-18T14:17:27.643Z,100805.58
2023-05-18T14:20:00.176Z,100801.94
2023-05-18T14:22:30.724Z,100800.83
2023-05-18T14:25:04.251Z,100800.69
2023-05-18T14:27:43.359Z,100800.58
2023-05-18T14:30:16.732Z,100804.35
2023-05-18T14:32:47.067Z,100806.73
2023-05-18T14:35:28.407Z,100804.34
2023-05-18T14:37:55.683Z,100803.54
2023-05-18T14:40:43.364Z,100801.91
2023-05-18T14:43:33.100Z,100799.77
2023-05-18T14:46:25.276Z,100798.48
2023-05-18T14:48:52.593Z,100799.95
2023-05-18T14:51:19.973Z,100797.02
2023-05-18T14:53:47.580Z,100802.81
2023-05-18T14:56:14.669Z,100801.60
2023-05-18T14:59:02.253Z,100801.73
2023-05-18T15:01:49.742Z,100801.81
2023-05-18T15:04:17.614Z,100796.61
2023-05-18T15:06:57.848Z,100798.60
2023-05-18T15:09:36.194Z,100797.73
2023-05-18T15:12:03.515Z,100797.16
2023-05-18T15:14:43.735Z,100797.63
2023-05-18T15:17:33.422Z,100798.15
2023-05-18T15:20:04.028Z,100795.58
2023-05-18T15:22:55.793Z,100791.52
2023-05-18T15:25:36.516Z,100792.45
2023-05-18T15:28:03.918Z,100791.71
2023-05-18T15:30:31.393Z,100793.55
2023-05-18T15:33:02.566Z,100791.98
2023-05-18T15:35:53.122Z,100793.27
2023-05-18T15:38:23.546Z,100792.70
2023-05-18T15:41:11.494Z,100791.02
2023-05-18T15:43:46.933Z,100797.55
2023-05-18T15:46:19.674Z,100793.86
2023-05-18T15:48:47.029Z,100800.48
2023-05-18T15:51:15.438Z,100800.69
2023-05-18T15:53:47.760Z,100799.06
2023-05-18T15:56:19.121Z,100799.52
2023-05-18T15:58:53.994Z,100798.82
2023-05-18T16:02:01.565Z,100798.59
2023-05-18T16:04:31.801Z,100796.00
2023-05-18T16:07:03.764Z,100796.48
2023-05-18T16:09:31.812Z,100800.20
2023-05-18T16:11:59.065Z,100800.04
2023-05-18T16:15:09.485Z,100795.64
2023-05-18T16:18:20.193Z,100801.83
2023-05-18T16:21:03.982Z,100803.14
2023-05-18T16:24:02.739Z,100803.98
2023-05-18T16:26:40.862Z,100806.94
2023-05-18T16:29:31.564Z,100809.80
2023-05-18T16:32:01.308Z,100808.03
2023-05-18T16:35:07.836Z,100812.71
2023-05-18T16:38:15.474Z,100810.13
2023-05-18T16:40:57.761Z,100813.70
2023-05-18T16:44:14.417Z,100814.98
2023-05-18T16:46:49.190Z,100818.85
2023-05-18T16:49:57.369Z,100818.42
2023-05-18T16:52:24.558Z,100821.38
2023-05-18T16:55:00.122Z,100820.34
2023-05-18T16:58:00.148Z,100820.19
2023-05-18T17:00:38.343Z,100820.70
2023-05-18T17:03:45.269Z,100819.52
2023-05-18T17:06:44.101Z,100820.52
2023-05-18T17:09:23.971Z,100820.58
2023-05-18T17:12:42.429Z,100823.59
2023-05-18T17:15:31.063Z,100819.83
2023-05-18T17:18:26.538Z,100823.35
2023-05-18T17:21:06.221Z,100820.07
2023-05-18T17:24:16.361Z,100823.69
2023-05-18T17:27:16.598Z,100829.45
2023-05-18T17:30:21.393Z,100831.30
2023-05-18T17:33:38.803Z,100839.48
2023-05-18T17:36:58.073Z,100839.15
2023-05-18T17:39:57.851Z,100836.78
2023-05-18T17:42:30.957Z,100840.97
2023-05-18T17:45:40.661Z,100842.40
2023-05-18T17:49:04.977Z,100847.33
2023-05-18T17:52:15.283Z,100854.42
2023-05-18T17:55:21.884Z,100856.08
2023-05-18T17:58:31.924Z,100864.86
2023-05-18T18:01:16.939Z,100868.67
2023-05-18T18:04:00.532Z,100872.09
2023-05-18T18:07:07.960Z,100876.61
2023-05-18T18:09:58.026Z,100880.30
2023-05-18T18:12:27.594Z,100883.15
2023-05-18T18:14:54.822Z,100879.70
2023-05-18T18:17:51.233Z,100881.35
2023-05-18T18:20:18.581Z,100886.52
2023-05-18T18:22:51.160Z,100887.41
2023-05-18T18:25:21.135Z,100891.77
2023-05-18T18:27:58.320Z,100893.79
2023-05-18T18:31:06.282Z,100898.41
2023-05-18T18:33:55.939Z,100898.78
2023-05-18T18:36:42.135Z,100898.23
2023-05-18T18:39:25.727Z,100896.77
2023-05-18T18:42:20.524Z,100901.27
2023-05-18T18:44:57.608Z,100902.03
2023-05-18T18:47:42.191Z,100903.17
2023-05-18T18:50:19.581Z,100902.43
2023-05-18T18:53:17.002Z,100899.80
2023-05-18T18:55:53.289Z,100903.61
2023-05-18T18:58:24.393Z,100903.04
2023-05-18T19:00:51.862Z,100907.23
2023-05-18T19:03:34.573Z,100905.89
2023-05-18T19:06:25.044Z,100909.52
2023-05-18T19:08:55.265Z,100914.72
2023-05-18T19:11:33.616Z,100909.98
2023-05-18T19:14:01.075Z,100911.77
2023-05-18T19:16:28.303Z,100914.35
2023-05-18T19:19:09.032Z,100911.84
2023-05-18T19:22:02.258Z,100911.32
2023-05-18T19:24:41.570Z,100914.22
2023-05-18T19:27:41.105Z,100918.88
2023-05-18T19:30:22.379Z,100919.02
2023-05-18T19:33:04.576Z,100916.46
2023-05-18T19:36:13.820Z,100915.86
2023-05-18T19:38:53.269Z,100916.56
2023-05-18T19:41:26.960Z,100919.15
2023-05-18T19:44:07.981Z,100919.38
2023-05-18T19:47:18.678Z,100920.61
2023-05-18T19:49:48.301Z,100919.59
2023-05-18T19:52:35.724Z,100917.44
2023-05-18T19:55:28.639Z,100921.63
2023-05-18T19:58:26.250Z,100919.48
2023-05-18T20:01:29.570Z,100919.77
2023-05-18T20:04:35.538Z,100920.98
2023-05-18T20:07:06.049Z,100923.14
2023-05-18T20:09:41.876Z,100925.35
2023-05-18T20:12:19.778Z,100925.23
2023-05-18T20:14:51.588Z,100928.62
2023-05-18T20:17:53.827Z,100928.52
2023-05-18T20:20:25.477Z,100932.00
2023-05-18T20:23:06.767Z,100931.98
2023-05-18T20:25:48.142Z,100936.03
2023-05-18T20:28:37.261Z,100934.33
2023-05-18T20:31:12.510Z,100938.95
2023-05-18T20:34:07.109Z,100940.66
2023-05-18T20:36:44.478Z,100935.79
2023-05-18T20:39:14.717Z,100943.33
2023-05-18T20:41:58.926Z,100944.41
2023-05-18T20:45:04.600Z,100947.00
2023-05-18T20:48:25.476Z,100946.43
2023-05-18T20:51:08.530Z,100948.05
2023-05-18T20:54:07.169Z,100946.30
2023-05-18T20:57:07.790Z,100944.77
2023-05-18T21:00:00.969Z,100946.75
2023-05-18T21:03:17.684Z,100945.29
2023-05-18T21:06:14.422Z,100949.60
2023-05-18T21:09:09.837Z,100945.52
2023-05-18T21:11:51.357Z,100944.52
2023-05-18T21:14:42.995Z,100942.80
2023-05-18T21:17:10.146Z,100940.71
2023-05-18T21:19:46.552Z,100939.54
2023-05-18T21:22:14.082Z,100939.90
2023-05-18T21:24:54.925Z,100938.85
2023-05-18T21:28:12.783Z,100939.78
2023-05-18T21:31:02.817Z,100941.89
2023-05-18T21:33:51.117Z,100942.08
2023-05-18T21:36:20.874Z,100942.69
2023-05-18T21:38:56.422Z,100941.34
2023-05-18T21:41:35.395Z,100944.81
2023-05-18T21:44:36.358Z,100943.96
2023-05-18T21:47:24.043Z,100946.27
2023-05-18T21:49:53.604Z,100946.77
2023-05-18T21:52:39.492Z,100944.04
2023-05-18T21:55:40.557Z,100946.48
2023-05-18T21:58:44.920Z,100944.47
2023-05-18T22:02:02.591Z,100942.13
2023-05-18T22:05:13.097Z,100944.98
2023-05-18T22:08:20.234Z,100953.38
2023-05-18T22:10:50.707Z,100957.98
2023-05-18T22:14:17.002Z,100954.02
2023-05-18T22:17:37.139Z,100958.62
2023-05-18T22:20:50.624Z,100955.66
2023-05-18T22:24:19.215Z,100953.23
2023-05-18T22:27:22.951Z,100954.15
2023-05-18T22:30:34.037Z,100957.55
2023-05-18T22:33:54.286Z,100958.52
2023-05-18T22:37:03.649Z,100958.78
2023-05-18T22:40:31.521Z,100962.70
2023-05-18T22:43:59.376Z,100961.36
2023-05-18T22:47:27.064Z,100962.52
2023-05-18T22:50:44.806Z,100966.77
2023-05-18T22:54:05.296Z,100962.29
2023-05-18T22:57:18.524Z,100963.44
2023-05-18T23:00:45.358Z,100969.27
2023-05-18T23:03:56.877Z,100970.36
2023-05-18T23:07:23.991Z,100969.86
2023-05-18T23:10:37.149Z,100972.29
2023-05-18T23:13:53.116Z,100970.12
2023-05-18T23:17:06.328Z,100974.05
2023-05-18T23:20:18.271Z,100977.58
2023-05-18T23:23:34.141Z,100973.44
2023-05-18T23:26:54.812Z,100974.87
2023-05-18T23:30:11.482Z,100972.08
2023-05-18T23:33:32.179Z,100970.06
2023-05-18T23:36:52.692Z,100971.70
2023-05-18T23:40:09.442Z,100970.29
2023-05-18T23:43:05.208Z,100964.67
2023-05-18T23:46:06.753Z,100969.98
2023-05-18T23:49:10.210Z,100972.92
2023-05-18T23:52:37.894Z,100977.64
2023-05-18T23:55:46.712Z,100973.98
2023-05-18T23:58:32.438Z,100976.77
